Time;durP1;ratioP1;P1;durP2;ratioP2;P2;SDS_P1;SDS_P2;PMS_P1;PMS_P2;Temp;Humidity;BMP_temperature;BMP_pressure;BME280_temperature;BME280_humidity;BME280_pressure;Samples;Min_cycle;Max_cycle;Signal;HPM_P1;HPM_P2
2022/01/08 00:02:03;;;;;;;14.43;6.80;;;3.20;99.90;;;;;;5111392;28;20032;-67
2022/01/08 00:04:29;;;;;;;16.27;7.13;;;3.20;99.90;;;;;;5114511;28;20039;-67
2022/01/08 00:06:56;;;;;;;12.20;6.25;;;3.20;99.90;;;;;;5113994;28;20048;-67
2022/01/08 00:09:22;;;;;;;9.65;6.47;;;3.20;99.90;;;;;;5111474;28;20047;-67
2022/01/08 00:11:47;;;;;;;12.80;5.95;;;3.20;99.90;;;;;;5110733;28;20040;-68
2022/01/08 00:14:14;;;;;;;10.30;6.00;;;3.20;99.90;;;;;;5111194;28;20079;-68
2022/01/08 00:16:40;;;;;;;11.60;5.90;;;3.20;99.90;;;;;;5111170;28;20518;-68
2022/01/08 00:19:06;;;;;;;9.93;6.72;;;3.20;99.90;;;;;;5111572;28;20039;-67
2022/01/08 00:21:32;;;;;;;12.07;6.32;;;3.20;99.90;;;;;;5111123;28;20119;-67
2022/01/08 00:23:58;;;;;;;14.75;6.85;;;3.20;99.90;;;;;;5111651;28;20526;-68
2022/01/08 00:26:23;;;;;;;11.38;6.40;;;3.20;99.90;;;;;;5111146;28;20124;-68
2022/01/08 00:28:49;;;;;;;12.70;6.25;;;3.20;99.90;;;;;;5110942;28;20111;-67
2022/01/08 00:31:15;;;;;;;12.55;6.85;;;3.20;99.90;;;;;;5110870;28;20039;-68
2022/01/08 00:33:40;;;;;;;14.57;6.85;;;3.20;99.90;;;;;;5112897;28;20043;-68
2022/01/08 00:36:07;;;;;;;11.52;7.05;;;3.20;99.90;;;;;;5115035;28;20499;-68
2022/01/08 00:38:33;;;;;;;13.35;7.28;;;3.20;99.90;;;;;;5115067;28;20036;-68
2022/01/08 00:40:58;;;;;;;13.68;7.65;;;3.30;99.90;;;;;;5114742;28;20093;-68
2022/01/08 00:43:25;;;;;;;14.02;7.47;;;3.20;99.90;;;;;;5114466;28;20043;-68
2022/01/08 00:45:50;;;;;;;17.38;7.38;;;3.20;99.90;;;;;;5114723;28;20040;-68
2022/01/08 00:48:16;;;;;;;11.73;7.03;;;3.30;99.90;;;;;;5114835;28;20040;-67
2022/01/08 00:50:41;;;;;;;11.07;7.07;;;3.20;99.90;;;;;;5114734;28;20032;-67
2022/01/08 00:53:07;;;;;;;12.55;6.93;;;3.30;99.90;;;;;;5114290;28;20075;-67
2022/01/08 00:55:33;;;;;;;13.90;7.95;;;3.20;99.90;;;;;;5095220;28;20039;-67
2022/01/08 00:57:58;;;;;;;11.15;7.30;;;3.30;99.90;;;;;;5113301;28;20040;-67
2022/01/08 01:00:24;;;;;;;16.30;8.65;;;3.20;99.90;;;;;;5113873;28;20039;-68
2022/01/08 01:02:50;;;;;;;12.30;8.02;;;3.20;99.90;;;;;;5113988;28;20036;-68
2022/01/08 01:05:15;;;;;;;11.75;7.47;;;3.20;99.90;;;;;;5114363;28;20042;-68
2022/01/08 01:07:41;;;;;;;10.95;7.30;;;3.10;99.90;;;;;;5114298;28;20562;-68
2022/01/08 01:10:08;;;;;;;13.73;7.63;;;3.30;99.90;;;;;;5114234;28;20044;-67
2022/01/08 01:12:35;;;;;;;14.25;8.23;;;3.30;99.90;;;;;;5113620;28;20043;-67
2022/01/08 01:15:01;;;;;;;13.23;7.68;;;3.20;99.90;;;;;;5113909;28;20039;-67
2022/01/08 01:17:26;;;;;;;10.07;7.63;;;3.20;99.90;;;;;;5114206;28;20127;-68
2022/01/08 01:19:52;;;;;;;12.38;8.07;;;3.20;99.90;;;;;;5113882;28;20035;-68
2022/01/08 01:22:20;;;;;;;17.02;9.25;;;3.10;99.90;;;;;;5095599;28;20043;-68
2022/01/08 01:24:48;;;;;;;17.35;9.23;;;3.20;99.90;;;;;;5114211;28;20044;-68
2022/01/08 01:30:06;;;;;;;15.35;7.90;;;3.10;99.90;;;;;;5114014;28;20071;-67
2022/01/08 01:48:52;;;;;;;17.20;8.43;;;3.00;99.90;;;;;;5113569;28;20079;-67
2022/01/08 01:51:23;;;;;;;15.23;9.23;;;2.80;99.90;;;;;;5113440;28;20036;-67
2022/01/08 01:53:49;;;;;;;12.93;8.40;;;2.90;99.90;;;;;;5113275;28;20092;-68
2022/01/08 01:56:20;;;;;;;15.63;8.15;;;2.90;99.90;;;;;;5113248;28;20040;-67
2022/01/08 01:58:46;;;;;;;18.23;9.20;;;2.90;99.90;;;;;;5094979;28;20503;-68
2022/01/08 02:01:12;;;;;;;18.05;9.43;;;2.90;99.90;;;;;;5078012;28;20092;-68
2022/01/08 02:03:37;;;;;;;16.00;9.60;;;2.90;99.90;;;;;;5112912;28;20036;-68
2022/01/08 02:06:03;;;;;;;22.95;10.68;;;2.80;99.90;;;;;;5113173;28;20518;-67
2022/01/08 02:08:29;;;;;;;13.93;9.52;;;2.80;99.90;;;;;;5112950;28;20044;-67
2022/01/08 02:10:55;;;;;;;16.35;9.80;;;2.80;99.90;;;;;;5112639;28;20129;-67
2022/01/08 02:13:25;;;;;;;14.75;9.32;;;2.80;99.90;;;;;;5112823;28;20050;-67
2022/01/08 02:15:53;;;;;;;13.25;8.30;;;2.90;99.90;;;;;;5112918;28;20071;-67
2022/01/08 02:18:23;;;;;;;16.02;9.35;;;2.90;99.90;;;;;;5112762;28;20032;-67
2022/01/08 02:20:49;;;;;;;13.00;8.70;;;2.80;99.90;;;;;;5112904;28;20039;-68
2022/01/08 02:23:15;;;;;;;13.68;9.27;;;2.80;99.90;;;;;;5112242;28;20070;-67
2022/01/08 02:25:40;;;;;;;14.32;9.10;;;2.90;99.90;;;;;;5112965;28;20078;-68
2022/01/08 02:28:06;;;;;;;15.00;8.65;;;2.80;99.90;;;;;;5112769;28;20384;-67
2022/01/08 02:30:33;;;;;;;16.00;8.98;;;2.80;99.90;;;;;;5112810;28;20051;-67
2022/01/08 02:32:59;;;;;;;13.70;7.93;;;2.80;99.90;;;;;;5112252;28;20036;-68
2022/01/08 02:35:25;;;;;;;13.55;8.05;;;2.80;99.90;;;;;;5112584;28;20510;-68
2022/01/08 02:37:52;;;;;;;12.55;8.25;;;2.80;99.90;;;;;;5112526;28;20032;-68
2022/01/08 02:40:19;;;;;;;14.07;8.48;;;2.80;99.90;;;;;;5112411;28;20046;-68
2022/01/08 02:43:01;;;;;;;15.32;7.85;;;2.80;99.90;;;;;;5093831;28;20044;-68
2022/01/08 02:45:28;;;;;;;16.27;7.82;;;2.90;99.90;;;;;;5112553;28;20055;-67
2022/01/08 02:47:55;;;;;;;15.73;8.65;;;2.90;99.90;;;;;;5112560;28;20043;-68
2022/01/08 02:50:22;;;;;;;16.00;7.95;;;2.90;99.90;;;;;;5112196;28;20492;-67
2022/01/08 02:52:49;;;;;;;13.15;7.28;;;2.90;99.90;;;;;;5111997;28;20054;-68
2022/01/08 02:55:19;;;;;;;16.20;7.28;;;2.90;99.90;;;;;;5093225;28;20129;-67
2022/01/08 02:57:46;;;;;;;12.38;7.00;;;2.90;99.90;;;;;;5112204;28;20039;-68
2022/01/08 03:00:15;;;;;;;13.55;6.57;;;2.90;99.90;;;;;;5111973;28;20488;-68
2022/01/08 03:02:45;;;;;;;10.60;6.47;;;2.90;99.90;;;;;;5111578;28;20460;-68
2022/01/08 03:05:12;;;;;;;9.80;6.05;;;2.90;99.90;;;;;;5112154;28;20122;-68
2022/01/08 03:07:43;;;;;;;9.10;6.32;;;2.90;99.90;;;;;;5112044;28;20376;-68
2022/01/08 03:10:11;;;;;;;10.32;5.80;;;2.90;99.90;;;;;;5093555;28;20043;-67
2022/01/08 03:12:40;;;;;;;12.25;5.15;;;2.90;99.90;;;;;;5111204;28;20044;-67
2022/01/08 03:15:08;;;;;;;15.25;5.90;;;2.90;99.90;;;;;;5111934;28;20407;-67
2022/01/08 03:17:34;;;;;;;12.90;5.90;;;2.90;99.90;;;;;;5111712;28;20555;-68
2022/01/08 03:20:04;;;;;;;9.75;6.78;;;2.90;99.90;;;;;;5111793;28;20127;-68
2022/01/08 03:22:30;;;;;;;11.95;6.70;;;2.90;99.90;;;;;;5111349;28;20071;-68
2022/01/08 03:24:56;;;;;;;11.73;5.65;;;2.80;99.90;;;;;;5111700;28;20074;-68
2022/01/08 03:27:22;;;;;;;15.55;6.03;;;2.80;99.90;;;;;;5093325;28;20559;-68
2022/01/08 03:29:48;;;;;;;11.45;6.10;;;2.70;99.90;;;;;;5111654;28;20060;-68
2022/01/08 03:32:14;;;;;;;8.05;6.10;;;2.80;99.90;;;;;;5111319;28;20036;-68
2022/01/08 03:34:40;;;;;;;14.10;6.55;;;2.70;99.90;;;;;;5111505;28;20075;-68
2022/01/08 03:37:06;;;;;;;13.85;6.03;;;2.70;99.90;;;;;;5111480;28;20535;-68
2022/01/08 03:39:31;;;;;;;12.52;6.35;;;2.70;99.90;;;;;;5111521;28;20046;-68
2022/01/08 03:41:57;;;;;;;16.00;6.38;;;2.70;99.90;;;;;;5110959;28;20082;-68
2022/01/08 03:44:24;;;;;;;15.43;7.22;;;2.60;99.90;;;;;;5111646;28;20094;-68
2022/01/08 03:46:50;;;;;;;11.70;6.47;;;2.70;99.90;;;;;;5111483;28;20043;-67
2022/01/08 03:49:25;;;;;;;10.82;6.18;;;2.60;99.90;;;;;;5111502;28;20327;-68
2022/01/08 03:51:55;;;;;;;11.82;6.32;;;2.70;99.90;;;;;;5110963;28;20050;-67
2022/01/08 03:54:21;;;;;;;16.30;6.68;;;2.60;99.90;;;;;;5111372;28;20040;-67
2022/01/08 03:56:47;;;;;;;13.23;6.53;;;2.60;99.90;;;;;;5111746;28;20184;-68
2022/01/08 03:59:13;;;;;;;17.02;7.65;;;2.70;99.90;;;;;;5111548;28;20523;-67
2022/01/08 04:01:38;;;;;;;17.15;6.78;;;2.70;99.90;;;;;;5109872;28;20515;-68
2022/01/08 04:04:04;;;;;;;16.52;7.68;;;2.70;99.90;;;;;;5092997;28;20423;-68
2022/01/08 04:06:29;;;;;;;12.48;6.82;;;2.70;99.90;;;;;;5111865;28;20043;-68
2022/01/08 04:08:58;;;;;;;8.43;6.53;;;2.70;99.90;;;;;;5115515;28;20483;-68
2022/01/08 04:11:25;;;;;;;13.20;6.60;;;2.80;99.90;;;;;;5115554;28;20042;-68
2022/01/08 04:13:52;;;;;;;14.68;6.85;;;2.70;99.90;;;;;;5115449;28;20071;-68
2022/01/08 04:16:22;;;;;;;16.45;7.53;;;2.70;99.90;;;;;;5097149;28;20089;-68
2022/01/08 04:18:48;;;;;;;12.90;7.07;;;2.80;99.90;;;;;;5115306;28;20392;-69
2022/01/08 04:23:56;;;;;;;11.05;7.28;;;2.70;99.90;;;;;;5114805;28;20079;-68
2022/01/08 04:26:23;;;;;;;16.83;8.20;;;2.70;99.90;;;;;;5115215;28;20046;-68
2022/01/08 04:28:49;;;;;;;20.50;8.27;;;2.70;99.90;;;;;;5096705;28;20046;-68
2022/01/08 04:31:15;;;;;;;13.05;7.43;;;2.60;99.90;;;;;;5114864;28;20115;-69
2022/01/08 04:33:41;;;;;;;10.43;6.07;;;2.60;99.90;;;;;;5114419;28;20567;-69
2022/01/08 04:36:07;;;;;;;17.08;7.72;;;2.60;99.90;;;;;;5114992;28;20519;-69
2022/01/08 04:38:33;;;;;;;14.00;7.55;;;2.60;99.90;;;;;;5096772;28;20158;-68
2022/01/08 04:40:59;;;;;;;13.23;8.02;;;2.60;99.90;;;;;;5114730;28;20084;-69
2022/01/08 04:43:24;;;;;;;19.08;7.97;;;2.60;99.90;;;;;;5114539;28;20426;-68
2022/01/08 04:45:51;;;;;;;12.88;6.93;;;2.50;99.90;;;;;;5114626;28;20089;-69
2022/01/08 04:48:17;;;;;;;14.77;7.38;;;2.60;99.90;;;;;;5114598;28;20102;-68
2022/01/08 04:50:43;;;;;;;13.48;7.85;;;2.60;99.90;;;;;;5114768;28;20512;-68
2022/01/08 04:53:08;;;;;;;13.25;7.20;;;2.60;99.90;;;;;;5096179;28;20559;-68
2022/01/08 04:55:34;;;;;;;14.88;7.35;;;2.50;99.90;;;;;;5114470;28;20082;-68
2022/01/08 04:57:59;;;;;;;12.02;7.20;;;2.50;99.90;;;;;;5096191;28;20043;-68
2022/01/08 05:00:25;;;;;;;14.85;8.00;;;2.50;99.90;;;;;;5096145;28;20051;-68
2022/01/08 05:02:50;;;;;;;13.23;7.22;;;2.50;99.90;;;;;;5113967;28;20579;-68
2022/01/08 05:05:16;;;;;;;13.07;7.10;;;2.50;99.90;;;;;;5114464;28;20031;-69
2022/01/08 05:07:42;;;;;;;16.33;7.57;;;2.50;99.90;;;;;;5114429;28;20054;-68
2022/01/08 05:10:08;;;;;;;11.18;7.28;;;2.50;99.90;;;;;;5114310;28;20431;-68
2022/01/08 05:12:34;;;;;;;14.90;7.38;;;2.50;99.90;;;;;;5113732;28;20114;-68
2022/01/08 05:15:01;;;;;;;14.93;6.63;;;2.50;99.90;;;;;;5113953;28;20039;-68
2022/01/08 05:17:32;;;;;;;14.02;7.05;;;2.50;99.90;;;;;;5095820;28;20148;-68
2022/01/08 05:20:01;;;;;;;12.07;6.63;;;2.50;99.90;;;;;;5113401;28;20373;-69
2022/01/08 05:22:29;;;;;;;15.43;7.78;;;2.40;99.90;;;;;;5113485;28;20044;-68
2022/01/08 05:24:56;;;;;;;16.50;6.72;;;2.50;99.90;;;;;;5114022;28;20058;-68
2022/01/08 05:27:22;;;;;;;17.55;7.32;;;2.50;99.90;;;;;;5095407;28;20053;-68
2022/01/08 05:29:51;;;;;;;9.48;6.07;;;2.40;99.90;;;;;;5114015;28;20119;-69
2022/01/08 05:32:18;;;;;;;12.43;6.45;;;2.40;99.90;;;;;;5113545;28;20172;-69
2022/01/08 05:34:49;;;;;;;10.70;6.18;;;2.40;99.90;;;;;;5113775;28;20043;-69
2022/01/08 05:37:16;;;;;;;14.90;6.00;;;2.40;99.90;;;;;;5113866;28;20162;-69
2022/01/08 05:39:42;;;;;;;12.38;6.57;;;2.30;99.90;;;;;;5113699;28;20039;-68
2022/01/08 05:42:07;;;;;;;12.77;6.28;;;2.30;99.90;;;;;;5113602;28;20747;-68
2022/01/08 05:44:33;;;;;;;13.05;7.30;;;2.30;99.90;;;;;;5113551;28;20047;-68
2022/01/08 05:46:59;;;;;;;11.98;6.80;;;2.30;99.90;;;;;;5113632;28;20043;-68
2022/01/08 05:49:25;;;;;;;13.23;6.43;;;2.40;99.90;;;;;;5113513;28;20071;-68
2022/01/08 05:51:51;;;;;;;10.35;6.28;;;2.40;99.90;;;;;;5113127;28;20078;-69
2022/01/08 05:54:16;;;;;;;13.73;6.78;;;2.40;99.90;;;;;;5113247;28;20683;-69
2022/01/08 05:56:42;;;;;;;13.43;6.65;;;2.40;99.90;;;;;;5113660;28;20049;-68
2022/01/08 05:59:07;;;;;;;13.95;6.45;;;2.40;99.90;;;;;;5094893;28;20036;-69
2022/01/08 06:01:34;;;;;;;17.00;6.78;;;2.40;99.90;;;;;;5113272;28;20031;-69
2022/01/08 06:04:00;;;;;;;18.75;7.05;;;2.40;99.90;;;;;;5113158;28;20086;-69
2022/01/08 06:06:26;;;;;;;16.60;7.25;;;2.40;99.90;;;;;;5113152;28;20054;-69
2022/01/08 06:08:51;;;;;;;14.63;6.72;;;2.40;99.90;;;;;;5113049;28;20039;-68
2022/01/08 06:11:17;;;;;;;17.88;7.80;;;2.50;99.90;;;;;;5112994;27;20043;-69
2022/01/08 06:13:43;;;;;;;17.88;7.13;;;2.50;99.90;;;;;;5112773;28;20042;-68
2022/01/08 06:16:08;;;;;;;18.33;7.35;;;2.50;99.90;;;;;;5112925;28;20036;-68
2022/01/08 06:18:35;;;;;;;13.02;6.75;;;2.50;99.90;;;;;;5112894;28;20131;-69
2022/01/08 06:21:01;;;;;;;14.02;6.45;;;2.40;99.90;;;;;;5112603;28;20036;-68
2022/01/08 06:23:27;;;;;;;16.85;7.20;;;2.50;99.90;;;;;;5112588;28;20114;-68
2022/01/08 06:25:53;;;;;;;12.32;6.95;;;2.40;99.90;;;;;;5112870;28;20036;-69
2022/01/08 06:28:19;;;;;;;12.13;6.90;;;2.40;99.90;;;;;;5094307;28;20047;-68
2022/01/08 06:30:45;;;;;;;10.20;6.43;;;2.30;99.90;;;;;;5112688;28;20496;-68
2022/01/08 06:33:11;;;;;;;16.63;6.70;;;2.40;99.90;;;;;;5112088;28;20072;-68
2022/01/08 06:35:36;;;;;;;11.98;6.20;;;2.40;99.90;;;;;;5112392;28;20039;-68
2022/01/08 06:38:02;;;;;;;9.75;6.43;;;2.40;99.90;;;;;;5112711;28;20059;-68
2022/01/08 06:40:27;;;;;;;12.55;6.63;;;2.30;99.90;;;;;;5112636;28;20102;-68
2022/01/08 06:42:53;;;;;;;13.18;7.70;;;2.40;99.90;;;;;;5112214;28;20071;-68
2022/01/08 06:45:18;;;;;;;16.08;6.82;;;2.30;99.90;;;;;;5112425;28;20043;-69
2022/01/08 06:47:45;;;;;;;14.15;6.85;;;2.30;99.90;;;;;;5112417;28;20062;-68
2022/01/08 06:50:12;;;;;;;14.35;6.65;;;2.30;99.90;;;;;;5112253;28;20043;-68
2022/01/08 06:52:38;;;;;;;16.98;6.85;;;2.30;99.90;;;;;;5111851;28;20527;-69
2022/01/08 06:55:05;;;;;;;17.45;6.90;;;2.30;99.90;;;;;;5093862;28;20509;-69
2022/01/08 06:57:30;;;;;;;12.75;7.07;;;2.30;99.90;;;;;;5111901;28;20035;-69
2022/01/08 06:59:56;;;;;;;11.02;6.20;;;2.30;99.90;;;;;;5112292;28;20035;-69
2022/01/08 07:02:22;;;;;;;10.52;6.13;;;2.30;99.90;;;;;;5093482;28;20035;-69
2022/01/08 07:04:47;;;;;;;11.90;6.05;;;2.30;99.90;;;;;;5110875;28;20051;-68
2022/01/08 07:07:13;;;;;;;9.30;6.18;;;2.30;99.90;;;;;;5112339;28;20040;-69
2022/01/08 07:09:38;;;;;;;9.85;5.90;;;2.20;99.90;;;;;;5112230;28;20404;-69
2022/01/08 07:12:04;;;;;;;14.25;6.63;;;2.20;99.90;;;;;;5111325;28;20541;-68
2022/01/08 07:14:30;;;;;;;11.80;6.43;;;2.20;99.90;;;;;;5111866;28;20527;-68
2022/01/08 07:16:55;;;;;;;10.18;5.80;;;2.20;99.90;;;;;;5111685;28;20075;-68
2022/01/08 07:19:21;;;;;;;12.48;6.07;;;2.20;99.90;;;;;;5111979;28;20047;-68
2022/01/08 07:21:46;;;;;;;17.05;6.95;;;2.20;99.90;;;;;;5111563;28;20042;-68
2022/01/08 07:24:12;;;;;;;14.05;6.18;;;2.20;99.90;;;;;;5093723;28;20437;-68
2022/01/08 07:26:38;;;;;;;12.93;6.43;;;2.20;99.90;;;;;;5111781;28;20042;-68
2022/01/08 07:29:03;;;;;;;16.85;7.05;;;2.20;99.90;;;;;;5111536;28;20039;-68
2022/01/08 07:31:29;;;;;;;11.18;7.13;;;2.20;99.90;;;;;;5109441;28;20099;-69
2022/01/08 07:33:54;;;;;;;16.75;7.25;;;2.10;99.90;;;;;;5108619;28;20089;-69
2022/01/08 07:36:20;;;;;;;21.17;7.65;;;2.10;99.90;;;;;;5111113;28;20043;-69
2022/01/08 07:38:47;;;;;;;16.17;7.32;;;2.10;99.90;;;;;;5111022;28;20513;-69
2022/01/08 07:41:13;;;;;;;15.88;7.20;;;2.00;99.90;;;;;;5109710;28;20845;-69
2022/01/08 07:43:39;;;;;;;13.85;6.40;;;2.00;99.90;;;;;;5110389;28;20036;-69
2022/01/08 07:46:04;;;;;;;20.35;8.05;;;2.00;99.90;;;;;;5111331;28;20039;-69
2022/01/08 07:48:30;;;;;;;16.65;7.32;;;2.00;99.90;;;;;;5111553;28;20052;-69
2022/01/08 07:50:55;;;;;;;14.23;7.63;;;2.00;99.90;;;;;;5110865;28;20118;-68
2022/01/08 07:53:21;;;;;;;13.27;7.40;;;2.00;99.90;;;;;;5110332;28;20116;-69
2022/01/08 07:55:47;;;;;;;11.27;6.38;;;1.90;99.90;;;;;;5110356;28;20143;-69
2022/01/08 07:58:12;;;;;;;10.90;6.55;;;1.80;99.90;;;;;;5110785;28;20046;-68
2022/01/08 08:00:38;;;;;;;13.48;6.78;;;1.80;99.90;;;;;;5111249;28;20035;-69
2022/01/08 08:03:03;;;;;;;17.08;6.30;;;1.80;99.90;;;;;;5110939;28;20119;-69
2022/01/08 08:05:31;;;;;;;14.10;6.32;;;1.80;99.90;;;;;;5110171;28;20059;-69
2022/01/08 08:07:59;;;;;;;13.43;6.85;;;1.80;99.90;;;;;;5092944;28;20044;-69
2022/01/08 08:10:27;;;;;;;13.90;6.95;;;1.70;99.90;;;;;;5111035;28;20552;-69
2022/01/08 08:12:53;;;;;;;10.82;6.20;;;1.70;99.90;;;;;;5092704;28;20399;-69
2022/01/08 08:15:20;;;;;;;21.60;7.20;;;1.70;99.90;;;;;;5110972;28;20105;-69
2022/01/08 08:17:46;;;;;;;10.27;6.88;;;1.60;99.90;;;;;;5111262;28;20066;-69
2022/01/08 08:20:12;;;;;;;13.98;7.53;;;1.70;99.90;;;;;;5111522;28;20492;-69
2022/01/08 08:22:39;;;;;;;13.13;7.35;;;1.70;99.90;;;;;;5075912;28;20040;-68
2022/01/08 08:25:07;;;;;;;15.27;7.20;;;1.70;99.90;;;;;;5110750;28;20450;-70
2022/01/08 08:27:33;;;;;;;19.73;8.23;;;1.70;99.90;;;;;;5111056;28;20039;-67
2022/01/08 08:29:58;;;;;;;21.02;7.35;;;1.70;99.90;;;;;;5112000;28;20092;-70
2022/01/08 08:32:24;;;;;;;11.73;7.22;;;1.80;99.90;;;;;;5111217;28;20044;-70
2022/01/08 08:34:51;;;;;;;14.38;8.02;;;1.80;99.90;;;;;;5111327;28;20043;-70
2022/01/08 08:37:19;;;;;;;18.73;7.03;;;1.80;99.90;;;;;;5139174;27;20031;-69
2022/01/08 08:39:45;;;;;;;14.10;7.63;;;1.80;99.90;;;;;;5140182;27;20046;-68
2022/01/08 08:42:10;;;;;;;18.83;7.60;;;1.70;99.90;;;;;;5133225;27;20042;-69
2022/01/08 08:44:36;;;;;;;12.57;7.55;;;1.80;99.90;;;;;;5131358;28;20487;-68
2022/01/08 08:47:03;;;;;;;16.23;7.35;;;1.90;99.90;;;;;;5113222;28;20041;-69
2022/01/08 08:49:29;;;;;;;17.20;7.43;;;1.80;99.90;;;;;;5131596;28;20106;-70
2022/01/08 08:51:55;;;;;;;15.70;7.65;;;1.90;99.90;;;;;;5131112;28;20088;-70
2022/01/08 08:54:21;;;;;;;14.10;7.65;;;1.90;99.90;;;;;;5114545;27;20075;-69
2022/01/08 08:56:46;;;;;;;13.20;7.65;;;1.90;99.90;;;;;;5135077;27;20032;-68
2022/01/08 08:59:12;;;;;;;14.90;8.13;;;1.90;99.90;;;;;;5134930;27;20031;-68
2022/01/08 09:01:38;;;;;;;12.50;7.75;;;1.90;99.90;;;;;;5135027;27;20100;-69
2022/01/08 09:04:04;;;;;;;13.65;8.70;;;1.80;99.90;;;;;;5137569;27;20483;-69
2022/01/08 09:06:30;;;;;;;18.38;9.07;;;1.80;99.90;;;;;;5135017;27;20069;-68
2022/01/08 09:08:56;;;;;;;14.35;7.97;;;1.80;99.90;;;;;;5134842;27;20043;-68
2022/01/08 09:11:22;;;;;;;15.45;9.38;;;2.00;99.90;;;;;;5098727;27;20107;-70
2022/01/08 09:13:48;;;;;;;16.58;8.82;;;2.00;99.90;;;;;;5134494;27;20050;-69
2022/01/08 09:16:13;;;;;;;14.75;8.45;;;2.00;99.90;;;;;;5134578;27;20036;-70
2022/01/08 09:18:41;;;;;;;17.27;9.18;;;2.00;99.90;;;;;;5134863;27;20043;-68
2022/01/08 09:21:07;;;;;;;17.23;9.63;;;2.10;99.90;;;;;;5134856;27;20066;-68
2022/01/08 09:23:34;;;;;;;26.70;9.15;;;2.10;99.90;;;;;;5134328;27;20039;-68
2022/01/08 09:26:00;;;;;;;18.52;9.82;;;2.10;99.90;;;;;;5134216;27;20122;-70
2022/01/08 09:28:27;;;;;;;21.23;9.50;;;2.20;99.90;;;;;;5134663;27;20038;-69
2022/01/08 09:30:54;;;;;;;18.65;9.25;;;2.20;99.90;;;;;;5116179;27;20039;-69
2022/01/08 09:33:20;;;;;;;18.63;8.50;;;2.20;99.90;;;;;;5134275;27;20043;-69
2022/01/08 09:35:46;;;;;;;19.67;10.25;;;2.30;99.90;;;;;;5099515;27;20098;-69
2022/01/08 09:38:11;;;;;;;20.65;9.77;;;2.30;99.90;;;;;;5135369;27;20399;-68
2022/01/08 09:40:37;;;;;;;22.15;9.57;;;2.40;99.90;;;;;;5117321;27;20039;-68
2022/01/08 09:43:04;;;;;;;22.23;9.30;;;2.50;99.90;;;;;;5134560;27;20039;-70
2022/01/08 09:45:30;;;;;;;17.85;9.85;;;2.40;99.90;;;;;;5135133;27;20521;-69
2022/01/08 09:47:56;;;;;;;17.30;9.15;;;2.50;99.90;;;;;;5135217;27;20531;-68
2022/01/08 09:50:21;;;;;;;19.48;9.30;;;2.40;99.90;;;;;;5134432;27;20080;-68
2022/01/08 09:52:47;;;;;;;15.75;9.50;;;2.40;99.90;;;;;;5133896;27;20097;-68
2022/01/08 09:55:12;;;;;;;18.63;9.32;;;2.30;99.90;;;;;;5134575;27;20035;-69
2022/01/08 09:57:38;;;;;;;21.88;10.77;;;2.40;99.90;;;;;;5122218;27;20032;-69
2022/01/08 10:00:15;;;;;;;15.45;9.90;;;2.40;99.90;;;;;;5117720;27;20060;-68
2022/01/08 10:02:41;;;;;;;21.02;10.10;;;2.40;99.90;;;;;;5142181;27;20035;-69
2022/01/08 10:05:15;;;;;;;20.05;10.35;;;2.40;99.90;;;;;;5142193;27;20043;-69
2022/01/08 10:07:42;;;;;;;21.25;10.73;;;2.50;99.90;;;;;;5142666;27;20113;-68
2022/01/08 10:10:17;;;;;;;18.60;10.05;;;2.50;99.90;;;;;;5146808;27;20045;-69
2022/01/08 10:12:56;;;;;;;17.70;9.77;;;2.40;99.90;;;;;;5147218;27;20043;-68
2022/01/08 10:18:20;;;;;;;19.65;9.38;;;2.50;99.90;;;;;;5153376;27;20042;-69
2022/01/08 10:20:49;;;;;;;17.95;9.43;;;2.50;99.90;;;;;;5135207;27;20451;-69
2022/01/08 10:23:21;;;;;;;19.52;10.30;;;2.60;99.90;;;;;;5153193;27;20043;-70
2022/01/08 10:26:03;;;;;;;16.83;8.68;;;2.60;99.90;;;;;;5153625;27;20053;-69
2022/01/08 10:28:40;;;;;;;23.25;9.43;;;2.60;99.90;;;;;;5153430;27;20064;-69
2022/01/08 10:31:09;;;;;;;15.93;9.02;;;2.60;99.90;;;;;;5153403;27;20073;-69
2022/01/08 10:33:35;;;;;;;18.98;10.98;;;2.70;99.90;;;;;;5153067;27;20042;-69
2022/01/08 10:36:01;;;;;;;21.33;10.57;;;2.70;99.90;;;;;;5153253;27;20072;-69
2022/01/08 10:38:27;;;;;;;18.00;9.25;;;2.70;99.90;;;;;;5134838;27;20043;-69
2022/01/08 10:40:53;;;;;;;17.00;9.23;;;2.60;99.90;;;;;;5153226;27;20038;-69
2022/01/08 10:43:26;;;;;;;17.77;8.95;;;2.80;99.90;;;;;;5152584;27;20486;-69
2022/01/08 10:45:54;;;;;;;19.52;8.98;;;2.70;99.90;;;;;;5153299;27;20038;-69
2022/01/08 10:48:43;;;;;;;18.60;9.13;;;2.70;99.90;;;;;;5134276;27;20093;-70
2022/01/08 10:51:12;;;;;;;20.90;9.80;;;2.80;99.90;;;;;;5134432;27;20039;-69
2022/01/08 10:54:16;;;;;;;20.88;9.70;;;2.90;99.90;;;;;;5134145;27;20046;-69
2022/01/08 10:56:46;;;;;;;24.25;9.73;;;2.90;99.90;;;;;;5031964;28;20045;-69
2022/01/08 10:59:22;;;;;;;22.00;10.98;;;3.00;99.90;;;;;;5031880;28;20045;-69
2022/01/08 11:02:05;;;;;;;19.00;9.52;;;3.00;99.90;;;;;;5106987;27;20038;-69
2022/01/08 11:04:51;;;;;;;20.73;9.48;;;3.10;99.90;;;;;;5154839;27;20057;-69
2022/01/08 11:07:20;;;;;;;17.65;8.82;;;3.10;99.90;;;;;;5154795;27;20035;-69
2022/01/08 11:09:52;;;;;;;19.23;9.63;;;3.00;99.90;;;;;;5154311;27;20039;-69
2022/01/08 11:12:33;;;;;;;16.55;9.52;;;3.10;99.90;;;;;;5153910;27;20117;-69
2022/01/08 11:17:46;;;;;;;;;;;3.50;99.90;;;;;;5134027;27;20042;-69
2022/01/08 11:20:13;;;;;;;21.90;10.27;;;3.40;99.90;;;;;;5152550;27;19915;-69
2022/01/08 11:22:41;;;;;;;22.08;10.52;;;3.40;99.90;;;;;;5152399;27;20070;-69
2022/01/08 11:25:17;;;;;;;20.58;10.07;;;3.30;99.90;;;;;;5152554;27;20091;-69
2022/01/08 11:27:51;;;;;;;21.90;10.57;;;3.30;99.90;;;;;;5152457;27;20046;-69
2022/01/08 11:30:20;;;;;;;15.60;10.77;;;3.30;99.90;;;;;;5148685;27;20075;-69
2022/01/08 11:32:47;;;;;;;21.85;11.15;;;3.20;99.90;;;;;;5151762;27;20038;-69
2022/01/08 11:35:14;;;;;;;26.67;10.85;;;3.20;99.90;;;;;;5152001;27;20060;-69
2022/01/08 11:37:48;;;;;;;21.85;11.35;;;3.20;99.90;;;;;;5133792;27;20043;-69
2022/01/08 11:40:18;;;;;;;24.70;11.43;;;3.20;99.90;;;;;;5152216;27;20111;-69
2022/01/08 11:42:44;;;;;;;20.00;10.95;;;3.20;99.90;;;;;;5151808;27;20030;-69
2022/01/08 11:45:19;;;;;;;22.38;11.93;;;3.20;99.90;;;;;;5151902;27;20053;-68
2022/01/08 11:47:52;;;;;;;27.08;12.80;;;3.30;99.90;;;;;;5152309;27;20095;-69
2022/01/08 11:50:21;;;;;;;20.88;12.95;;;3.30;99.90;;;;;;5152071;27;20042;-68
2022/01/08 11:52:46;;;;;;;23.52;13.57;;;3.30;99.90;;;;;;5151666;27;20043;-68
2022/01/08 11:55:12;;;;;;;23.27;13.23;;;3.30;99.90;;;;;;5151892;27;20491;-68
2022/01/08 11:57:38;;;;;;;20.05;13.68;;;3.30;99.90;;;;;;5151836;27;20105;-69
2022/01/08 12:00:05;;;;;;;23.38;14.45;;;3.30;99.90;;;;;;5151946;27;20376;-68
2022/01/08 12:02:38;;;;;;;28.63;14.52;;;3.30;99.90;;;;;;5151700;27;20083;-68
2022/01/08 12:05:05;;;;;;;29.50;14.75;;;3.30;99.90;;;;;;5133464;27;20401;-68
2022/01/08 12:07:45;;;;;;;28.90;15.98;;;3.40;99.90;;;;;;5116252;27;20042;-68
2022/01/08 12:10:19;;;;;;;24.65;16.60;;;3.30;99.90;;;;;;5133192;27;20499;-68
2022/01/08 12:12:51;;;;;;;33.58;16.08;;;3.40;99.90;;;;;;5151549;27;20121;-68
2022/01/08 12:15:38;;;;;;;24.98;14.77;;;3.40;99.90;;;;;;5151799;27;20118;-68
2022/01/08 12:18:04;;;;;;;24.15;15.52;;;3.40;99.90;;;;;;5151647;27;20035;-68
2022/01/08 12:20:44;;;;;;;26.48;15.90;;;3.40;99.90;;;;;;5151593;27;20042;-68
2022/01/08 12:23:22;;;;;;;26.58;16.10;;;3.40;99.90;;;;;;5151472;27;20038;-68
2022/01/08 12:25:47;;;;;;;28.70;15.90;;;3.30;99.90;;;;;;5151616;27;20066;-68
2022/01/08 12:28:41;;;;;;;26.23;16.77;;;3.30;99.90;;;;;;5153059;27;20491;-68
2022/01/08 12:31:42;;;;;;;31.08;15.40;;;3.40;99.90;;;;;;5155721;27;20062;-68
2022/01/08 12:34:23;;;;;;;32.45;17.13;;;3.30;99.90;;;;;;5094411;27;20050;-68
2022/01/08 12:36:58;;;;;;;35.33;15.82;;;3.30;99.90;;;;;;5155653;27;20046;-69
2022/01/08 12:39:48;;;;;;;31.05;17.98;;;3.30;99.90;;;;;;5155805;27;20038;-69
2022/01/08 12:42:22;;;;;;;33.38;19.83;;;3.30;99.90;;;;;;5155059;27;20113;-68
2022/01/08 12:44:59;;;;;;;39.70;18.50;;;3.30;99.90;;;;;;5155444;27;20058;-68
2022/01/08 12:47:46;;;;;;;44.17;20.70;;;3.30;99.90;;;;;;5155340;27;20049;-68
2022/01/08 12:50:32;;;;;;;39.30;21.02;;;3.30;99.90;;;;;;5155251;27;20046;-68
2022/01/08 12:53:07;;;;;;;34.28;20.42;;;3.30;99.90;;;;;;5119208;27;20046;-67
2022/01/08 12:55:55;;;;;;;36.13;20.20;;;3.30;99.90;;;;;;5155241;27;20091;-67
2022/01/08 12:58:32;;;;;;;35.95;20.20;;;3.40;99.90;;;;;;5155140;27;20379;-67
2022/01/08 13:01:12;;;;;;;41.22;20.67;;;3.40;99.90;;;;;;5155374;27;20454;-67
2022/01/08 13:03:46;;;;;;;39.65;19.73;;;3.40;99.90;;;;;;5154813;27;20041;-68
2022/01/08 13:06:12;;;;;;;37.92;20.13;;;3.40;99.90;;;;;;5154952;27;20038;-67
2022/01/08 13:08:38;;;;;;;40.13;20.52;;;3.30;99.90;;;;;;5155100;27;20048;-68
2022/01/08 13:11:06;;;;;;;37.70;19.50;;;3.40;99.90;;;;;;5154334;27;20042;-67
2022/01/08 13:13:46;;;;;;;40.30;20.63;;;3.40;99.90;;;;;;5155124;27;20046;-68
2022/01/08 13:16:12;;;;;;;37.83;19.10;;;3.50;99.90;;;;;;5155424;27;20117;-67
2022/01/08 13:18:38;;;;;;;35.58;18.90;;;3.50;99.90;;;;;;5149187;27;20096;-67